createdAt,value
2022-08-19T00:01:30.316Z,16.83
2022-08-19T00:04:37.593Z,14.30
2022-08-19T00:07:43.828Z,13.87
2022-08-19T00:10:46.897Z,20.60
2022-08-19T00:16:55.679Z,14.70
2022-08-19T00:19:58.382Z,13.67
2022-08-19T00:23:02.230Z,15.82
2022-08-19T00:26:05.288Z,14.90
2022-08-19T00:32:11.673Z,14.18
2022-08-19T00:35:18.369Z,17.30
2022-08-19T00:38:35.197Z,16.47
2022-08-19T00:41:41.845Z,16.57
2022-08-19T00:44:44.882Z,16.17
2022-08-19T00:50:52.452Z,16.08
2022-08-19T00:53:57.787Z,19.20
2022-08-19T00:57:01.378Z,19.93
2022-08-19T01:00:08.154Z,16.43
2022-08-19T01:03:16.108Z,14.40
2022-08-19T01:06:22.124Z,15.83
2022-08-19T01:09:26.217Z,15.73
2022-08-19T01:12:28.926Z,13.67
2022-08-19T01:15:34.854Z,17.02
2022-08-19T01:18:40.745Z,15.70
2022-08-19T01:21:48.080Z,15.30
2022-08-19T01:24:52.805Z,17.23
2022-08-19T01:28:10.627Z,15.47
2022-08-19T01:31:27.265Z,14.27
2022-08-19T01:34:30.545Z,15.63
2022-08-19T01:37:44.144Z,13.73
2022-08-19T01:40:48.264Z,17.33
2022-08-19T01:44:03.155Z,16.90
2022-08-19T01:47:14.115Z,17.55
2022-08-19T01:50:16.791Z,17.98
2022-08-19T01:53:19.448Z,20.35
2022-08-19T01:56:24.249Z,17.42
2022-08-19T01:59:27.110Z,22.37
2022-08-19T02:02:29.754Z,20.75
2022-08-19T02:05:32.751Z,16.95
2022-08-19T02:08:38.156Z,21.42
2022-08-19T02:11:43.399Z,20.73
2022-08-19T02:14:46.014Z,19.03
2022-08-19T02:17:49.403Z,17.63
2022-08-19T02:20:52.088Z,20.03
2022-08-19T02:23:54.931Z,18.77
2022-08-19T02:26:59.659Z,18.17
2022-08-19T02:30:02.800Z,17.50
2022-08-19T02:36:10.220Z,20.08
2022-08-19T02:39:12.804Z,22.37
2022-08-19T02:42:16.744Z,22.33
2022-08-19T02:45:19.677Z,21.63
2022-08-19T02:48:24.323Z,20.77
2022-08-19T02:51:29.675Z,23.77
2022-08-19T02:54:32.465Z,23.10
2022-08-19T02:57:36.790Z,20.77
2022-08-19T03:00:44.442Z,23.87
2022-08-19T03:03:47.367Z,26.20
2022-08-19T03:06:50.268Z,24.80
2022-08-19T03:09:52.962Z,23.10
2022-08-19T03:12:56.914Z,22.42
2022-08-19T03:15:59.568Z,23.83
2022-08-19T03:19:03.446Z,22.55
2022-08-19T03:22:06.317Z,24.40
2022-08-19T03:25:10.051Z,23.45
2022-08-19T03:28:15.922Z,27.00
2022-08-19T03:31:43.518Z,24.73
2022-08-19T03:34:43.703Z,24.97
2022-08-19T03:37:46.308Z,24.73
2022-08-19T03:40:48.879Z,28.58
2022-08-19T03:43:54.297Z,21.83
2022-08-19T03:46:59.201Z,25.90
2022-08-19T03:50:02.483Z,24.53
2022-08-19T03:53:05.346Z,24.17
2022-08-19T03:56:10.850Z,22.58
2022-08-19T03:59:17.462Z,22.97
2022-08-19T04:02:20.846Z,28.00
2022-08-19T04:05:27.582Z,23.70
2022-08-19T04:08:31.209Z,25.37
2022-08-19T04:11:42.910Z,26.73
2022-08-19T04:14:48.236Z,23.90
2022-08-19T04:17:50.969Z,26.83
2022-08-19T04:20:53.871Z,25.33
2022-08-19T04:23:57.847Z,26.55
2022-08-19T04:27:01.652Z,26.87
2022-08-19T04:30:07.218Z,27.50
2022-08-19T04:33:10.042Z,28.07
2022-08-19T04:36:18.273Z,28.77
2022-08-19T04:39:45.698Z,27.67
2022-08-19T04:42:47.754Z,29.90
2022-08-19T04:45:56.382Z,28.37
2022-08-19T04:49:00.079Z,29.70
2022-08-19T04:55:15.654Z,25.80
2022-08-19T04:58:18.479Z,22.92
2022-08-19T05:01:24.445Z,28.63
2022-08-19T05:04:27.486Z,27.90
2022-08-19T05:07:32.167Z,30.33
2022-08-19T05:10:37.475Z,27.43
2022-08-19T05:13:40.525Z,26.43
2022-08-19T05:16:46.295Z,27.07
2022-08-19T05:20:06.940Z,27.60
2022-08-19T05:23:13.057Z,25.23
2022-08-19T05:26:27.097Z,27.10
2022-08-19T05:29:36.544Z,24.97
2022-08-19T05:32:41.431Z,29.60
2022-08-19T05:35:45.179Z,25.00
2022-08-19T05:38:51.559Z,28.87
2022-08-19T05:41:59.282Z,30.97
2022-08-19T05:45:02.881Z,26.37
2022-08-19T05:48:07.814Z,27.97
2022-08-19T05:51:10.559Z,28.17
2022-08-19T05:54:15.137Z,22.60
2022-08-19T05:57:18.438Z,28.23
2022-08-19T06:00:24.667Z,26.17
2022-08-19T06:03:30.391Z,27.67
2022-08-19T06:06:35.211Z,30.67
2022-08-19T06:09:38.821Z,24.03
2022-08-19T06:12:42.390Z,25.27
2022-08-19T06:15:47.544Z,29.90
2022-08-19T06:18:53.603Z,25.83
2022-08-19T06:21:56.201Z,23.40
2022-08-19T06:24:59.701Z,34.53
2022-08-19T06:28:19.616Z,28.37
2022-08-19T06:31:25.216Z,26.90
2022-08-19T06:34:31.659Z,25.53
2022-08-19T06:37:34.706Z,24.80
2022-08-19T06:40:39.479Z,24.65
2022-08-19T06:43:44.122Z,36.40
2022-08-19T06:46:53.566Z,32.03
2022-08-19T06:50:03.408Z,30.23
2022-08-19T06:53:07.957Z,28.43
2022-08-19T06:56:10.849Z,31.37
2022-08-19T06:59:15.802Z,30.58
2022-08-19T07:02:20.869Z,30.97
2022-08-19T07:05:25.185Z,32.20
2022-08-19T07:08:29.360Z,27.97
2022-08-19T07:11:33.587Z,25.27
2022-08-19T07:14:38.251Z,25.47
2022-08-19T07:17:42.644Z,23.00
2022-08-19T07:20:49.635Z,27.47
2022-08-19T07:23:53.599Z,28.10
2022-08-19T07:27:01.614Z,27.33
2022-08-19T07:30:05.928Z,25.77
2022-08-19T07:33:09.169Z,26.03
2022-08-19T07:39:19.288Z,23.90
2022-08-19T07:42:23.067Z,28.03
2022-08-19T07:45:26.079Z,24.80
2022-08-19T07:48:29.874Z,23.75
2022-08-19T07:51:36.904Z,27.70
2022-08-19T07:54:41.826Z,29.20
2022-08-19T08:00:52.843Z,24.53
2022-08-19T08:07:36.485Z,27.30
2022-08-19T08:10:39.599Z,27.48
2022-08-19T08:13:45.140Z,32.37
2022-08-19T08:16:48.371Z,28.77
2022-08-19T08:23:13.655Z,29.13
2022-08-19T08:26:17.259Z,28.50
2022-08-19T08:29:22.502Z,30.30
2022-08-19T08:32:28.952Z,29.43
2022-08-19T08:35:31.921Z,32.67
2022-08-19T08:38:41.195Z,29.60
2022-08-19T08:41:49.185Z,27.53
2022-08-19T08:48:22.281Z,24.60
2022-08-19T08:51:34.842Z,27.13
2022-08-19T08:54:48.839Z,25.53
2022-08-19T08:58:03.924Z,28.63
2022-08-19T09:01:07.143Z,23.00
2022-08-19T09:04:10.038Z,23.97
2022-08-19T09:07:35.030Z,24.80
2022-08-19T09:10:45.716Z,23.43
2022-08-19T09:13:58.076Z,22.97
2022-08-19T09:17:01.611Z,21.75
2022-08-19T09:20:09.564Z,21.80
2022-08-19T09:23:13.081Z,22.77
2022-08-19T09:26:18.769Z,24.77
2022-08-19T09:29:22.858Z,26.57
2022-08-19T09:32:27.192Z,21.08
2022-08-19T09:35:31.761Z,23.00
2022-08-19T09:38:34.795Z,19.23
2022-08-19T09:41:39.034Z,18.55
2022-08-19T09:44:49.955Z,38.33
2022-08-19T09:47:55.515Z,20.67
2022-08-19T09:51:04.918Z,18.20
2022-08-19T09:54:07.871Z,21.63
2022-08-19T09:57:15.913Z,16.63
2022-08-19T10:00:18.756Z,21.20
2022-08-19T10:03:21.518Z,16.42
2022-08-19T10:06:45.567Z,17.77
2022-08-19T10:09:49.241Z,22.83
2022-08-19T10:12:56.131Z,21.25
2022-08-19T10:16:05.879Z,17.50
2022-08-19T10:19:10.335Z,21.47
2022-08-19T10:22:15.380Z,15.67
2022-08-19T10:25:18.797Z,18.33
2022-08-19T10:28:24.031Z,18.93
2022-08-19T10:32:01.094Z,19.13
2022-08-19T10:34:52.916Z,18.00
2022-08-19T10:38:02.502Z,19.97
2022-08-19T10:41:11.307Z,17.80
2022-08-19T10:44:17.209Z,17.57
2022-08-19T10:47:25.773Z,18.23
2022-08-19T10:50:46.867Z,27.00
2022-08-19T10:53:50.488Z,21.03
2022-08-19T10:56:52.248Z,16.92
2022-08-19T10:59:56.412Z,14.80
2022-08-19T11:02:59.171Z,13.00
2022-08-19T11:06:02.551Z,12.82
2022-08-19T11:09:05.678Z,13.47
2022-08-19T11:15:16.042Z,12.67
2022-08-19T11:18:19.030Z,16.83
2022-08-19T11:24:28.389Z,14.70
2022-08-19T11:27:31.566Z,12.33
2022-08-19T11:30:35.579Z,13.67
2022-08-19T11:33:38.363Z,11.47
2022-08-19T11:36:43.572Z,11.57
2022-08-19T11:39:46.347Z,12.63
2022-08-19T11:42:59.331Z,10.13
2022-08-19T11:46:07.729Z,11.87
2022-08-19T11:49:14.073Z,8.13
2022-08-19T11:52:17.060Z,11.77
2022-08-19T11:55:20.561Z,12.38
2022-08-19T11:58:23.596Z,14.82
2022-08-19T12:01:28.574Z,17.53
2022-08-19T12:04:31.685Z,18.40
2022-08-19T12:07:35.290Z,15.60
2022-08-19T12:10:38.410Z,18.88
2022-08-19T12:13:42.122Z,13.43
2022-08-19T12:16:51.115Z,16.05
2022-08-19T12:19:55.130Z,16.20
2022-08-19T12:22:57.975Z,12.45
2022-08-19T12:26:00.811Z,13.75
2022-08-19T12:29:03.766Z,14.80
2022-08-19T12:35:15.004Z,11.55
2022-08-19T12:41:23.362Z,16.65
2022-08-19T12:44:29.157Z,20.25
2022-08-19T12:47:34.375Z,17.05
2022-08-19T12:50:41.702Z,17.30
2022-08-19T12:53:44.908Z,20.92
2022-08-19T12:56:48.179Z,14.65
2022-08-19T12:59:54.655Z,18.73
2022-08-19T13:02:59.026Z,16.67
2022-08-19T13:06:01.866Z,12.90
2022-08-19T13:12:13.919Z,17.92
2022-08-19T13:15:23.756Z,13.77
2022-08-19T13:18:28.329Z,16.60
2022-08-19T13:21:32.578Z,17.35
2022-08-19T13:24:37.602Z,16.23
2022-08-19T13:27:41.267Z,20.55
2022-08-19T13:31:01.491Z,26.20
2022-08-19T13:34:06.708Z,21.63
2022-08-19T13:37:10.152Z,24.00
2022-08-19T13:40:17.040Z,28.60
2022-08-19T13:43:22.988Z,29.93
2022-08-19T13:46:26.319Z,28.53
2022-08-19T13:49:32.093Z,26.50
2022-08-19T13:52:35.059Z,30.50
2022-08-19T13:58:40.889Z,29.77
2022-08-19T14:01:44.259Z,32.35
2022-08-19T14:04:48.448Z,32.93
2022-08-19T14:07:51.886Z,28.47
2022-08-19T14:10:54.648Z,29.70
2022-08-19T14:13:57.320Z,30.65
2022-08-19T14:17:00.589Z,37.05
2022-08-19T14:20:10.963Z,38.40
2022-08-19T14:23:14.762Z,32.77
2022-08-19T14:26:18.992Z,32.23
2022-08-19T14:29:21.667Z,32.33
2022-08-19T14:32:27.703Z,30.38
2022-08-19T14:35:35.660Z,31.47
2022-08-19T14:38:38.418Z,29.93
2022-08-19T14:41:43.453Z,26.52
2022-08-19T14:44:46.910Z,24.07
2022-08-19T14:47:49.660Z,24.67
2022-08-19T14:50:53.946Z,24.63
2022-08-19T14:53:57.579Z,21.03
2022-08-19T14:57:01.309Z,22.60
2022-08-19T15:00:06.176Z,27.37
2022-08-19T15:03:09.094Z,22.20
2022-08-19T15:06:13.667Z,21.90
2022-08-19T15:09:16.529Z,17.50
2022-08-19T15:12:21.966Z,16.13
2022-08-19T15:15:25.550Z,20.37
2022-08-19T15:18:28.345Z,14.75
2022-08-19T15:24:36.437Z,16.17
2022-08-19T15:27:51.537Z,15.40
2022-08-19T15:30:54.820Z,15.85
2022-08-19T15:33:59.267Z,14.80
2022-08-19T15:37:06.065Z,15.57
2022-08-19T15:40:10.148Z,19.92
2022-08-19T15:43:12.995Z,15.43
2022-08-19T15:49:21.112Z,15.90
2022-08-19T15:52:25.671Z,19.25
2022-08-19T15:55:34.698Z,18.02
2022-08-19T15:58:55.147Z,18.10
2022-08-19T16:02:15.594Z,14.85
2022-08-19T16:05:39.714Z,15.88
2022-08-19T16:08:49.230Z,14.75
2022-08-19T16:11:56.837Z,16.30
2022-08-19T16:15:00.137Z,17.10
2022-08-19T16:18:04.048Z,20.98
2022-08-19T16:21:08.026Z,13.27
2022-08-19T16:24:13.951Z,14.75
2022-08-19T16:27:17.042Z,15.88
2022-08-19T16:30:19.787Z,15.90
2022-08-19T16:36:26.711Z,16.45
2022-08-19T16:39:32.614Z,19.70
2022-08-19T16:42:35.811Z,17.17
2022-08-19T16:45:38.593Z,21.50
2022-08-19T16:48:46.609Z,23.67
2022-08-19T16:51:49.594Z,18.40
2022-08-19T16:57:56.513Z,18.40
2022-08-19T17:04:06.909Z,21.53
2022-08-19T17:07:10.622Z,19.08
2022-08-19T17:10:14.740Z,23.10
2022-08-19T17:13:18.010Z,19.97
2022-08-19T17:16:24.465Z,20.17
2022-08-19T17:19:27.407Z,18.73
2022-08-19T17:22:30.263Z,22.02
2022-08-19T17:25:35.079Z,19.38
2022-08-19T17:28:37.728Z,26.93
2022-08-19T17:31:40.635Z,22.40
2022-08-19T17:34:44.272Z,22.52
2022-08-19T17:37:47.234Z,17.73
2022-08-19T17:40:51.776Z,18.65
2022-08-19T17:43:55.518Z,18.17
2022-08-19T17:46:58.401Z,18.77
2022-08-19T17:50:01.065Z,23.45
2022-08-19T17:53:05.824Z,19.60
2022-08-19T17:56:10.606Z,19.87
2022-08-19T17:59:14.517Z,19.73
2022-08-19T18:02:21.984Z,26.83
2022-08-19T18:05:29.434Z,16.93
2022-08-19T18:08:32.933Z,18.23
2022-08-19T18:11:36.936Z,21.43
2022-08-19T18:14:40.144Z,21.87
2022-08-19T18:17:43.021Z,18.57
2022-08-19T18:20:46.111Z,20.42
2022-08-19T18:26:53.146Z,17.73
2022-08-19T18:29:59.435Z,19.50
2022-08-19T18:33:08.606Z,18.10
2022-08-19T18:36:12.072Z,21.33
2022-08-19T18:39:32.691Z,19.35
2022-08-19T18:42:54.104Z,20.20
2022-08-19T18:46:14.384Z,17.53
2022-08-19T18:49:18.239Z,25.63
2022-08-19T18:52:22.349Z,21.87
2022-08-19T18:55:26.868Z,19.27
2022-08-19T18:58:34.755Z,17.80
2022-08-19T19:01:39.487Z,21.03
2022-08-19T19:04:42.351Z,18.80
2022-08-19T19:07:45.184Z,19.55
2022-08-19T19:10:47.794Z,26.85
2022-08-19T19:13:55.472Z,18.63
2022-08-19T19:16:58.929Z,20.87
2022-08-19T19:20:01.541Z,21.70
2022-08-19T19:23:04.375Z,20.17
2022-08-19T19:26:09.630Z,18.45
2022-08-19T19:29:14.087Z,22.63
2022-08-19T19:32:19.827Z,29.40
2022-08-19T19:35:22.710Z,22.27
2022-08-19T19:38:25.718Z,22.17
2022-08-19T19:41:28.413Z,20.60
2022-08-19T19:44:32.738Z,21.17
2022-08-19T19:47:35.527Z,21.70
2022-08-19T19:50:38.286Z,21.05
2022-08-19T19:53:41.727Z,20.75
2022-08-19T19:56:46.044Z,33.20
2022-08-19T19:59:51.554Z,18.57
2022-08-19T20:02:56.024Z,16.23
2022-08-19T20:06:00.274Z,16.47
2022-08-19T20:09:10.445Z,15.77
2022-08-19T20:12:13.211Z,18.10
2022-08-19T20:15:17.318Z,15.32
2022-08-19T20:18:19.991Z,17.53
2022-08-19T20:21:22.704Z,13.38
2022-08-19T20:24:28.032Z,16.73
2022-08-19T20:27:37.174Z,18.20
2022-08-19T20:30:46.387Z,20.73
2022-08-19T20:33:49.953Z,18.27
2022-08-19T20:39:55.076Z,18.80
2022-08-19T20:42:58.005Z,17.30
2022-08-19T20:46:03.552Z,15.98
2022-08-19T20:49:06.520Z,16.20
2022-08-19T20:52:09.283Z,13.93
2022-08-19T20:55:13.299Z,12.45
2022-08-19T20:58:17.037Z,10.53
2022-08-19T21:01:21.120Z,8.80
2022-08-19T21:04:25.027Z,8.90
2022-08-19T21:07:39.163Z,6.10
2022-08-19T21:10:42.698Z,13.57
2022-08-19T21:13:45.331Z,6.25
2022-08-19T21:16:50.447Z,6.55
2022-08-19T21:19:53.292Z,4.07
2022-08-19T21:22:56.005Z,6.25
2022-08-19T21:26:00.416Z,5.13
2022-08-19T21:29:03.148Z,6.63
2022-08-19T21:32:07.590Z,5.25
2022-08-19T21:35:10.437Z,4.87
2022-08-19T21:38:13.027Z,4.63
2022-08-19T21:41:15.780Z,5.53
2022-08-19T21:44:18.486Z,3.95
2022-08-19T21:47:22.550Z,4.88
2022-08-19T21:50:28.588Z,2.23
2022-08-19T21:53:34.445Z,1.57
2022-08-19T21:56:39.991Z,3.07
2022-08-19T21:59:44.060Z,1.50
2022-08-19T22:02:48.315Z,2.43
2022-08-19T22:05:50.990Z,3.10
2022-08-19T22:08:55.431Z,2.75
2022-08-19T22:11:58.322Z,2.17
2022-08-19T22:15:01.772Z,2.35
2022-08-19T22:18:06.040Z,2.07
2022-08-19T22:21:11.930Z,3.23
2022-08-19T22:24:14.661Z,4.33
2022-08-19T22:27:17.333Z,1.90
2022-08-19T22:30:22.481Z,3.53
2022-08-19T22:33:27.663Z,4.53
2022-08-19T22:36:31.612Z,1.40
2022-08-19T22:39:35.065Z,1.97
2022-08-19T22:42:38.836Z,3.42
2022-08-19T22:45:42.346Z,1.70
2022-08-19T22:48:47.118Z,2.30
2022-08-19T22:52:07.477Z,1.57
2022-08-19T22:55:10.536Z,1.53
2022-08-19T23:01:27.583Z,3.10
2022-08-19T23:04:34.893Z,1.97
2022-08-19T23:07:38.391Z,5.13
2022-08-19T23:10:41.173Z,3.13
2022-08-19T23:13:43.882Z,1.42
2022-08-19T23:16:51.053Z,1.27
2022-08-19T23:19:55.642Z,2.47
2022-08-19T23:22:58.638Z,2.57
2022-08-19T23:26:01.182Z,2.17
2022-08-19T23:29:21.856Z,1.60
2022-08-19T23:32:25.420Z,1.43
2022-08-19T23:35:33.643Z,2.10
2022-08-19T23:38:36.443Z,1.67
2022-08-19T23:41:39.048Z,2.13
2022-08-19T23:44:51.697Z,1.02
2022-08-19T23:47:55.636Z,1.30
2022-08-19T23:51:01.221Z,1.67
2022-08-19T23:54:03.954Z,2.67
2022-08-19T23:57:13.878Z,1.38
